createdAt,value
2022-09-09T00:02:20.812Z,1.67
2022-09-09T00:05:02.695Z,2.45
2022-09-09T00:07:44.017Z,2.13
2022-09-09T00:10:29.716Z,1.67
2022-09-09T00:13:05.538Z,1.92
2022-09-09T00:15:37.512Z,2.10
2022-09-09T00:18:18.506Z,2.40
2022-09-09T00:20:52.848Z,2.75
2022-09-09T00:23:29.313Z,1.88
2022-09-09T00:26:09.307Z,2.22
2022-09-09T00:28:42.688Z,1.92
2022-09-09T00:31:26.306Z,2.05
2022-09-09T00:33:54.602Z,2.35
2022-09-09T00:36:26.229Z,1.90
2022-09-09T00:38:57.939Z,2.10
2022-09-09T00:41:33.378Z,2.70
2022-09-09T00:44:07.908Z,2.13
2022-09-09T00:46:46.357Z,1.85
2022-09-09T00:49:33.787Z,2.13
2022-09-09T00:52:09.224Z,2.75
2022-09-09T00:54:50.769Z,1.95
2022-09-09T00:57:17.447Z,1.83
2022-09-09T00:59:52.173Z,2.20
2022-09-09T01:02:30.702Z,2.33
2022-09-09T01:05:14.784Z,2.20
2022-09-09T01:07:48.224Z,2.42
2022-09-09T01:10:42.586Z,2.20
2022-09-09T01:13:17.893Z,2.35
2022-09-09T01:15:45.502Z,2.45
2022-09-09T01:18:17.589Z,1.80
2022-09-09T01:21:19.363Z,2.20
2022-09-09T01:24:27.940Z,2.97
2022-09-09T01:26:59.999Z,3.55
2022-09-09T01:29:27.143Z,2.67
2022-09-09T01:31:58.055Z,3.00
2022-09-09T01:34:28.298Z,2.38
2022-09-09T01:37:01.126Z,2.05
2022-09-09T01:39:28.740Z,2.15
2022-09-09T01:41:57.103Z,2.10
2022-09-09T01:44:25.125Z,2.10
2022-09-09T01:46:51.983Z,1.95
2022-09-09T01:49:19.465Z,2.33
2022-09-09T01:51:50.658Z,2.22
2022-09-09T01:54:18.054Z,2.50
2022-09-09T01:56:55.490Z,1.95
2022-09-09T02:00:02.150Z,2.42
2022-09-09T02:02:47.788Z,2.30
2022-09-09T02:05:23.029Z,2.60
2022-09-09T02:07:53.311Z,2.20
2022-09-09T02:10:29.845Z,2.30
2022-09-09T02:13:20.674Z,2.50
2022-09-09T02:15:57.087Z,2.63
2022-09-09T02:18:51.228Z,2.70
2022-09-09T02:21:18.978Z,2.80
2022-09-09T02:23:48.915Z,2.10
2022-09-09T02:26:22.398Z,2.10
2022-09-09T02:31:23.026Z,2.40
2022-09-09T02:33:57.332Z,1.90
2022-09-09T02:36:27.387Z,1.90
2022-09-09T02:38:55.418Z,1.85
2022-09-09T02:41:33.682Z,2.00
2022-09-09T02:44:01.419Z,2.22
2022-09-09T02:46:43.309Z,1.92
2022-09-09T02:49:12.035Z,2.45
2022-09-09T02:52:02.094Z,3.00
2022-09-09T02:54:33.012Z,2.60
2022-09-09T02:57:21.775Z,2.35
2022-09-09T02:59:49.493Z,2.28
2022-09-09T03:02:16.639Z,2.22
2022-09-09T03:04:45.544Z,2.25
2022-09-09T03:07:13.092Z,2.80
2022-09-09T03:09:39.914Z,2.60
2022-09-09T03:12:06.773Z,2.47
2022-09-09T03:14:33.474Z,2.78
2022-09-09T03:17:01.922Z,2.35
2022-09-09T03:19:29.143Z,1.65
2022-09-09T03:21:55.841Z,1.70
2022-09-09T03:24:23.711Z,2.20
2022-09-09T03:26:51.487Z,2.35
2022-09-09T03:29:19.461Z,2.00
2022-09-09T03:31:46.396Z,2.05
2022-09-09T03:34:14.596Z,1.90
2022-09-09T03:36:42.089Z,1.83
2022-09-09T03:39:08.884Z,2.10
2022-09-09T03:41:35.630Z,2.13
2022-09-09T03:44:02.462Z,2.38
2022-09-09T03:46:29.363Z,2.50
2022-09-09T03:48:56.147Z,2.55
2022-09-09T03:51:23.025Z,2.47
2022-09-09T03:53:50.026Z,2.38
2022-09-09T03:56:16.752Z,2.20
2022-09-09T03:58:43.546Z,2.60
2022-09-09T04:01:15.824Z,1.77
2022-09-09T04:03:43.319Z,2.10
2022-09-09T04:06:14.308Z,2.80
2022-09-09T04:08:42.677Z,2.22
2022-09-09T04:11:09.591Z,2.78
2022-09-09T04:13:41.195Z,2.58
2022-09-09T04:16:09.268Z,2.58
2022-09-09T04:18:36.109Z,2.55
2022-09-09T04:21:04.577Z,3.33
2022-09-09T04:23:31.660Z,2.85
2022-09-09T04:25:59.905Z,2.65
2022-09-09T04:28:29.269Z,3.15
2022-09-09T04:30:57.805Z,2.92
2022-09-09T04:33:27.575Z,3.00
2022-09-09T04:35:55.955Z,2.38
2022-09-09T04:38:23.953Z,2.25
2022-09-09T04:40:52.765Z,2.13
2022-09-09T04:43:19.943Z,3.25
2022-09-09T04:45:49.487Z,2.55
2022-09-09T04:48:16.418Z,2.25
2022-09-09T04:50:43.081Z,2.50
2022-09-09T04:53:10.108Z,2.55
2022-09-09T04:55:36.902Z,3.78
2022-09-09T04:58:07.967Z,3.65
2022-09-09T05:00:36.796Z,3.22
2022-09-09T05:03:09.794Z,4.32
2022-09-09T05:05:36.977Z,3.33
2022-09-09T05:08:07.955Z,3.63
2022-09-09T05:10:35.548Z,3.20
2022-09-09T05:13:02.260Z,3.38
2022-09-09T05:15:29.594Z,2.97
2022-09-09T05:18:01.508Z,5.30
2022-09-09T05:20:29.248Z,5.13
2022-09-09T05:22:57.322Z,4.80
2022-09-09T05:25:26.934Z,4.60
2022-09-09T05:27:54.741Z,4.35
2022-09-09T05:30:23.146Z,4.35
2022-09-09T05:32:49.964Z,4.10
2022-09-09T05:35:17.281Z,3.65
2022-09-09T05:37:43.975Z,4.32
2022-09-09T05:40:11.863Z,4.68
2022-09-09T05:42:39.930Z,3.90
2022-09-09T05:45:08.701Z,4.45
2022-09-09T05:47:36.494Z,4.00
2022-09-09T05:50:03.395Z,3.88
2022-09-09T05:52:31.050Z,4.07
2022-09-09T05:54:58.021Z,3.72
2022-09-09T05:57:24.750Z,4.15
2022-09-09T05:59:51.486Z,3.88
2022-09-09T06:02:18.321Z,4.18
2022-09-09T06:04:45.106Z,3.90
2022-09-09T06:07:11.830Z,4.43
2022-09-09T06:09:38.506Z,4.25
2022-09-09T06:12:05.509Z,4.05
2022-09-09T06:14:32.209Z,4.35
2022-09-09T06:16:58.904Z,4.43
2022-09-09T06:19:27.363Z,4.38
2022-09-09T06:21:54.084Z,4.63
2022-09-09T06:24:21.009Z,4.45
2022-09-09T06:26:47.774Z,4.40
2022-09-09T06:29:14.472Z,4.72
2022-09-09T06:31:42.210Z,5.15
2022-09-09T06:34:10.245Z,4.00
2022-09-09T06:36:39.449Z,3.83
2022-09-09T06:39:12.104Z,3.65
2022-09-09T06:41:40.690Z,4.07
2022-09-09T06:44:07.583Z,4.18
2022-09-09T06:46:34.662Z,4.38
2022-09-09T06:49:01.730Z,4.88
2022-09-09T06:51:32.010Z,6.80
2022-09-09T06:54:03.115Z,6.57
2022-09-09T06:56:34.005Z,5.90
2022-09-09T06:59:04.911Z,6.55
2022-09-09T07:01:37.949Z,6.32
2022-09-09T07:04:08.347Z,6.18
2022-09-09T07:06:37.458Z,5.82
2022-09-09T07:09:07.202Z,4.60
2022-09-09T07:11:38.526Z,4.20
2022-09-09T07:14:05.273Z,4.40
2022-09-09T07:16:35.018Z,5.03
2022-09-09T07:19:03.414Z,4.45
2022-09-09T07:21:31.671Z,4.70
2022-09-09T07:23:59.810Z,4.85
2022-09-09T07:26:30.163Z,5.80
2022-09-09T07:28:58.053Z,4.85
2022-09-09T07:31:27.950Z,4.95
2022-09-09T07:33:55.013Z,4.43
2022-09-09T07:36:24.990Z,4.60
2022-09-09T07:38:54.669Z,4.32
2022-09-09T07:41:44.689Z,4.68
2022-09-09T07:44:14.158Z,4.45
2022-09-09T07:46:42.260Z,4.07
2022-09-09T07:49:09.942Z,3.70
2022-09-09T07:51:42.793Z,2.97
2022-09-09T07:54:12.157Z,2.58
2022-09-09T07:56:40.485Z,2.90
2022-09-09T07:59:08.007Z,2.75
2022-09-09T08:01:40.684Z,2.92
2022-09-09T08:04:10.743Z,2.53
2022-09-09T08:06:40.273Z,2.42
2022-09-09T08:09:08.031Z,2.47
2022-09-09T08:11:39.254Z,2.28
2022-09-09T08:14:09.102Z,2.50
2022-09-09T08:16:40.199Z,2.20
2022-09-09T08:19:08.257Z,2.30
2022-09-09T08:21:37.655Z,2.13
2022-09-09T08:24:06.123Z,3.40
2022-09-09T08:26:39.280Z,2.00
2022-09-09T08:29:08.094Z,2.28
2022-09-09T08:31:47.411Z,1.42
2022-09-09T08:34:14.618Z,1.70
2022-09-09T08:36:44.405Z,2.00
2022-09-09T08:39:13.317Z,2.00
2022-09-09T08:42:26.075Z,2.10
2022-09-09T08:45:20.221Z,2.15
2022-09-09T08:48:03.335Z,2.45
2022-09-09T08:50:36.261Z,2.22
2022-09-09T08:53:09.380Z,2.72
2022-09-09T08:55:58.335Z,2.83
2022-09-09T08:58:27.197Z,3.28
2022-09-09T09:01:15.148Z,2.90
2022-09-09T09:03:48.448Z,3.08
2022-09-09T09:06:25.327Z,3.30
2022-09-09T09:09:22.142Z,3.15
2022-09-09T09:11:54.313Z,3.20
2022-09-09T09:14:31.258Z,3.90
2022-09-09T09:17:07.404Z,3.50
2022-09-09T09:19:36.680Z,3.45
2022-09-09T09:22:08.379Z,3.08
2022-09-09T09:24:53.923Z,2.70
2022-09-09T09:27:34.229Z,2.70
2022-09-09T09:30:22.877Z,2.90
2022-09-09T09:32:59.434Z,2.90
2022-09-09T09:35:26.200Z,2.13
2022-09-09T09:40:59.331Z,2.20
2022-09-09T09:43:29.576Z,2.00
2022-09-09T09:46:16.622Z,2.10
2022-09-09T09:48:44.560Z,1.73
2022-09-09T09:51:18.169Z,1.90
2022-09-09T09:53:45.235Z,1.65
2022-09-09T09:56:16.878Z,1.20
2022-09-09T09:58:47.112Z,1.40
2022-09-09T10:01:32.342Z,1.40
2022-09-09T10:04:02.571Z,1.27
2022-09-09T10:06:39.108Z,1.15
2022-09-09T10:09:21.617Z,1.20
2022-09-09T10:12:20.195Z,0.95
2022-09-09T10:14:53.147Z,1.00
2022-09-09T10:17:28.239Z,1.10
2022-09-09T10:20:33.234Z,0.82
2022-09-09T10:23:26.213Z,1.15
2022-09-09T10:26:14.527Z,0.90
2022-09-09T10:29:03.348Z,0.90
2022-09-09T10:32:05.014Z,0.90
2022-09-09T10:34:46.573Z,0.90
2022-09-09T10:37:47.581Z,0.90
2022-09-09T10:40:30.934Z,0.85
2022-09-09T10:43:09.310Z,1.50
2022-09-09T10:46:01.242Z,1.17
2022-09-09T10:49:11.043Z,0.90
2022-09-09T10:51:43.618Z,1.00
2022-09-09T10:54:11.293Z,1.00
2022-09-09T10:56:40.710Z,1.00
2022-09-09T10:59:19.322Z,0.82
2022-09-09T11:01:50.336Z,1.00
2022-09-09T11:04:35.243Z,0.90
2022-09-09T11:07:11.901Z,0.85
2022-09-09T11:09:46.115Z,0.85
2022-09-09T11:12:20.466Z,0.85
2022-09-09T11:14:53.184Z,0.75
2022-09-09T11:17:28.346Z,0.70
2022-09-09T11:19:56.006Z,0.90
2022-09-09T11:22:28.614Z,0.55
2022-09-09T11:25:17.348Z,0.60
2022-09-09T11:27:53.095Z,0.70
2022-09-09T11:30:53.682Z,0.70
2022-09-09T11:33:33.154Z,1.00
2022-09-09T11:36:37.746Z,0.70
2022-09-09T11:39:25.373Z,1.15
2022-09-09T11:41:52.562Z,1.00
2022-09-09T11:44:31.133Z,0.73
2022-09-09T11:46:57.959Z,0.77
2022-09-09T11:49:42.823Z,0.95
2022-09-09T11:52:42.831Z,0.85
2022-09-09T11:55:13.146Z,0.88
2022-09-09T11:57:40.634Z,1.10
2022-09-09T12:00:08.182Z,0.90
2022-09-09T12:02:37.630Z,1.08
2022-09-09T12:05:11.008Z,1.00
2022-09-09T12:10:20.154Z,0.80
2022-09-09T12:12:47.382Z,0.80
2022-09-09T12:15:17.196Z,0.80
2022-09-09T12:17:51.394Z,0.80
2022-09-09T12:20:20.719Z,0.77
2022-09-09T12:22:52.800Z,0.70
2022-09-09T12:25:41.299Z,0.80
2022-09-09T12:28:19.076Z,0.60
2022-09-09T12:31:06.068Z,0.60
2022-09-09T12:33:44.018Z,0.85
2022-09-09T12:36:33.566Z,1.15
2022-09-09T12:39:16.157Z,0.90
2022-09-09T12:41:51.322Z,0.95
2022-09-09T12:44:17.998Z,0.80
2022-09-09T12:46:47.750Z,0.80
2022-09-09T12:49:36.518Z,1.13
2022-09-09T12:52:06.740Z,0.85
2022-09-09T12:54:37.257Z,1.20
2022-09-09T12:57:05.979Z,1.00
2022-09-09T12:59:40.156Z,2.17
2022-09-09T13:02:27.152Z,1.20
2022-09-09T13:04:55.210Z,1.42
2022-09-09T13:07:22.697Z,1.20
2022-09-09T13:09:50.197Z,0.90
2022-09-09T13:12:23.553Z,1.00
2022-09-09T13:14:54.343Z,1.17
2022-09-09T13:17:26.725Z,1.05
2022-09-09T13:19:54.334Z,0.70
2022-09-09T13:22:22.606Z,1.02
2022-09-09T13:25:03.948Z,0.90
2022-09-09T13:27:35.118Z,1.05
2022-09-09T13:30:02.979Z,0.90
2022-09-09T13:32:32.011Z,1.00
2022-09-09T13:35:00.693Z,1.10
2022-09-09T13:37:38.790Z,1.20
2022-09-09T13:40:07.659Z,1.25
2022-09-09T13:42:41.025Z,1.20
2022-09-09T13:47:44.136Z,1.30
2022-09-09T13:50:21.969Z,1.25
2022-09-09T13:52:51.079Z,1.50
2022-09-09T13:55:18.239Z,1.50
2022-09-09T13:58:02.129Z,1.40
2022-09-09T14:00:35.282Z,1.23
2022-09-09T14:03:04.874Z,1.52
2022-09-09T14:05:33.551Z,1.30
2022-09-09T14:08:01.588Z,1.15
2022-09-09T14:10:28.469Z,1.00
2022-09-09T14:12:55.230Z,1.35
2022-09-09T14:15:22.903Z,1.40
2022-09-09T14:17:49.662Z,1.20
2022-09-09T14:20:18.481Z,1.92
2022-09-09T14:22:45.202Z,1.00
2022-09-09T14:25:14.430Z,1.13
2022-09-09T14:27:41.747Z,1.15
2022-09-09T14:30:09.181Z,1.20
2022-09-09T14:32:36.055Z,1.10
2022-09-09T14:35:02.900Z,1.55
2022-09-09T14:37:32.015Z,1.02
2022-09-09T14:39:59.226Z,1.25
2022-09-09T14:42:26.868Z,1.10
2022-09-09T14:44:53.585Z,3.08
2022-09-09T14:47:20.336Z,1.50
2022-09-09T14:49:47.493Z,1.20
2022-09-09T14:52:14.365Z,1.20
2022-09-09T14:54:41.147Z,1.00
2022-09-09T14:57:07.837Z,1.10
2022-09-09T14:59:35.363Z,1.00
2022-09-09T15:02:05.116Z,1.02
2022-09-09T15:04:31.996Z,1.02
2022-09-09T15:06:59.642Z,1.25
2022-09-09T15:09:26.490Z,1.00
2022-09-09T15:11:53.310Z,1.15
2022-09-09T15:14:22.514Z,1.00
2022-09-09T15:16:52.337Z,1.08
2022-09-09T15:19:19.056Z,0.80
2022-09-09T15:21:45.786Z,1.20
2022-09-09T15:24:14.571Z,1.23
2022-09-09T15:26:41.350Z,1.00
2022-09-09T15:29:09.034Z,0.88
2022-09-09T15:31:36.199Z,1.10
2022-09-09T15:34:06.008Z,0.85
2022-09-09T15:36:35.176Z,1.27
2022-09-09T15:39:03.807Z,0.90
2022-09-09T15:41:32.602Z,1.00
2022-09-09T15:44:00.136Z,1.10
2022-09-09T15:46:29.647Z,1.02
2022-09-09T15:48:58.795Z,1.00
2022-09-09T15:51:43.612Z,1.45
2022-09-09T15:54:13.515Z,1.13
2022-09-09T15:56:40.892Z,1.25
2022-09-09T15:59:07.790Z,1.42
2022-09-09T16:01:36.585Z,1.15
2022-09-09T16:04:03.516Z,1.17
2022-09-09T16:06:30.638Z,1.02
2022-09-09T16:08:59.284Z,1.00
2022-09-09T16:11:34.531Z,1.00
2022-09-09T16:14:01.366Z,1.10
2022-09-09T16:16:30.384Z,1.30
2022-09-09T16:19:03.850Z,1.13
2022-09-09T16:24:04.413Z,1.10
2022-09-09T16:26:33.773Z,1.27
2022-09-09T16:29:02.205Z,1.10
2022-09-09T16:31:30.691Z,0.90
2022-09-09T16:33:57.672Z,1.02
2022-09-09T16:36:26.689Z,1.08
2022-09-09T16:38:55.938Z,1.40
2022-09-09T16:41:23.051Z,1.60
2022-09-09T16:43:54.864Z,1.10
2022-09-09T16:46:22.899Z,1.10
2022-09-09T16:48:50.242Z,1.20
2022-09-09T16:51:26.042Z,1.30
2022-09-09T16:53:54.344Z,1.08
2022-09-09T16:56:24.050Z,1.65
2022-09-09T16:58:58.989Z,1.40
2022-09-09T17:01:32.436Z,1.10
2022-09-09T17:04:04.368Z,1.33
2022-09-09T17:06:35.452Z,1.27
2022-09-09T17:09:05.042Z,1.00
2022-09-09T17:11:31.854Z,0.75
2022-09-09T17:13:59.300Z,1.05
2022-09-09T17:16:31.533Z,1.52
2022-09-09T17:18:59.573Z,6.00
2022-09-09T17:21:28.000Z,6.40
2022-09-09T17:23:57.189Z,3.15
2022-09-09T17:26:29.744Z,4.35
2022-09-09T17:28:59.823Z,1.97
2022-09-09T17:31:29.421Z,1.35
2022-09-09T17:33:56.913Z,1.80
2022-09-09T17:36:26.800Z,2.00
2022-09-09T17:38:53.858Z,4.38
2022-09-09T17:41:33.339Z,1.83
2022-09-09T17:44:00.676Z,1.67
2022-09-09T17:46:27.531Z,1.60
2022-09-09T17:48:58.198Z,1.70
2022-09-09T17:51:28.291Z,2.30
2022-09-09T17:53:56.805Z,5.50
2022-09-09T17:56:24.555Z,3.13
2022-09-09T17:58:52.003Z,1.33
2022-09-09T18:01:21.890Z,1.48
2022-09-09T18:03:49.955Z,1.30
2022-09-09T18:06:20.708Z,1.50
2022-09-09T18:08:52.719Z,1.20
2022-09-09T18:11:22.409Z,1.60
2022-09-09T18:13:55.572Z,1.73
2022-09-09T18:16:24.736Z,1.23
2022-09-09T18:18:52.600Z,1.35
2022-09-09T18:21:20.213Z,1.38
2022-09-09T18:23:52.223Z,1.50
2022-09-09T18:26:24.492Z,1.40
2022-09-09T18:28:54.032Z,1.80
2022-09-09T18:31:25.130Z,2.08
2022-09-09T18:33:53.498Z,1.80
2022-09-09T18:36:23.454Z,1.75
2022-09-09T18:38:51.086Z,1.80
2022-09-09T18:41:22.080Z,1.83
2022-09-09T18:43:50.950Z,2.05
2022-09-09T18:46:18.994Z,1.80
2022-09-09T18:48:47.262Z,1.80
2022-09-09T18:51:16.286Z,2.38
2022-09-09T18:53:43.033Z,2.10
2022-09-09T18:56:13.387Z,1.67
2022-09-09T18:58:40.589Z,1.85
2022-09-09T19:01:15.180Z,2.45
2022-09-09T19:03:42.063Z,1.63
2022-09-09T19:06:15.643Z,1.55
2022-09-09T19:08:44.717Z,1.75
2022-09-09T19:11:16.141Z,1.70
2022-09-09T19:13:43.718Z,1.60
2022-09-09T19:16:13.385Z,1.60
2022-09-09T19:18:41.552Z,1.42
2022-09-09T19:21:18.527Z,1.67
2022-09-09T19:23:56.466Z,1.90
2022-09-09T19:26:23.451Z,1.90
2022-09-09T19:28:51.686Z,1.65
2022-09-09T19:31:20.242Z,1.70
2022-09-09T19:33:47.953Z,1.92
2022-09-09T19:36:18.167Z,2.08
2022-09-09T19:38:47.545Z,1.70
2022-09-09T19:41:21.367Z,1.90
2022-09-09T19:43:48.330Z,1.95
2022-09-09T19:46:18.215Z,1.70
2022-09-09T19:48:46.681Z,2.60
2022-09-09T19:51:20.261Z,2.70
2022-09-09T19:56:19.950Z,2.10
2022-09-09T19:58:48.303Z,2.10
2022-09-09T20:01:21.250Z,2.22
2022-09-09T20:03:51.317Z,2.30
2022-09-09T20:06:24.138Z,2.60
2022-09-09T20:08:51.050Z,2.70
2022-09-09T20:11:20.333Z,2.40
2022-09-09T20:13:48.968Z,2.40
2022-09-09T20:16:22.606Z,2.30
2022-09-09T20:18:52.562Z,2.50
2022-09-09T20:21:25.302Z,2.42
2022-09-09T20:23:52.876Z,2.70
2022-09-09T20:26:22.408Z,2.58
2022-09-09T20:28:50.610Z,2.58
2022-09-09T20:31:20.050Z,3.13
2022-09-09T20:33:47.697Z,3.08
2022-09-09T20:36:20.245Z,2.50
2022-09-09T20:38:53.093Z,2.57
2022-09-09T20:41:22.537Z,2.80
2022-09-09T20:43:54.138Z,3.72
2022-09-09T20:46:23.268Z,4.63
2022-09-09T20:48:51.349Z,5.13
2022-09-09T20:51:19.688Z,6.47
2022-09-09T20:53:47.432Z,6.25
2022-09-09T20:56:16.897Z,3.10
2022-09-09T20:58:43.846Z,2.35
2022-09-09T21:01:15.977Z,2.78
2022-09-09T21:03:42.794Z,2.70
2022-09-09T21:06:09.579Z,2.20
2022-09-09T21:08:36.807Z,2.30
2022-09-09T21:11:05.171Z,2.25
2022-09-09T21:13:34.039Z,2.25
2022-09-09T21:16:01.032Z,2.28
2022-09-09T21:18:29.187Z,2.00
2022-09-09T21:20:56.454Z,2.20
2022-09-09T21:23:24.170Z,1.80
2022-09-09T21:25:51.869Z,2.50
2022-09-09T21:28:18.580Z,2.30
2022-09-09T21:30:49.317Z,2.40
2022-09-09T21:33:17.678Z,2.30
2022-09-09T21:35:45.080Z,2.50
2022-09-09T21:38:17.841Z,2.55
2022-09-09T21:40:44.879Z,7.30
2022-09-09T21:43:14.092Z,6.88
2022-09-09T21:45:42.297Z,5.30
2022-09-09T21:48:12.963Z,3.30
2022-09-09T21:50:41.951Z,2.25
2022-09-09T21:53:10.083Z,2.20
2022-09-09T21:55:41.888Z,2.97
2022-09-09T21:58:11.833Z,3.53
2022-09-09T22:00:46.556Z,3.25
2022-09-09T22:03:15.493Z,3.53
2022-09-09T22:05:44.115Z,2.60
2022-09-09T22:08:13.918Z,2.97
2022-09-09T22:10:45.693Z,2.38
2022-09-09T22:13:16.310Z,2.67
2022-09-09T22:15:45.488Z,2.45
2022-09-09T22:18:14.049Z,2.63
2022-09-09T22:20:44.080Z,2.25
2022-09-09T22:23:12.441Z,3.13
2022-09-09T22:25:40.349Z,3.10
2022-09-09T22:28:09.142Z,3.17
2022-09-09T22:30:35.873Z,2.90
2022-09-09T22:33:02.640Z,3.53
2022-09-09T22:35:29.575Z,3.42
2022-09-09T22:37:57.156Z,3.78
2022-09-09T22:40:23.940Z,3.90
2022-09-09T22:42:52.884Z,4.38
2022-09-09T22:45:20.832Z,4.65
2022-09-09T22:47:47.739Z,5.53
2022-09-09T22:50:14.536Z,5.95
2022-09-09T22:52:41.315Z,5.50
2022-09-09T22:55:09.238Z,4.20
2022-09-09T22:57:37.281Z,4.30
2022-09-09T23:00:09.132Z,4.20
2022-09-09T23:02:40.803Z,3.38
2022-09-09T23:05:11.282Z,3.53
2022-09-09T23:07:38.207Z,2.90
2022-09-09T23:10:05.954Z,3.30
2022-09-09T23:12:34.015Z,3.20
2022-09-09T23:15:00.924Z,3.05
2022-09-09T23:17:27.833Z,3.53
2022-09-09T23:19:56.648Z,2.95
2022-09-09T23:22:24.262Z,3.08
2022-09-09T23:24:52.729Z,3.85
2022-09-09T23:27:21.249Z,3.30
2022-09-09T23:29:48.719Z,3.47
2022-09-09T23:32:15.806Z,3.78
2022-09-09T23:34:42.625Z,3.38
2022-09-09T23:37:11.175Z,3.70
2022-09-09T23:39:40.270Z,3.60
2022-09-09T23:42:08.034Z,3.22
2022-09-09T23:44:36.618Z,3.47
2022-09-09T23:47:05.583Z,3.55
2022-09-09T23:49:34.116Z,4.03
2022-09-09T23:52:05.245Z,3.80
2022-09-09T23:54:33.109Z,4.13
2022-09-09T23:57:02.292Z,3.95
2022-09-09T23:59:30.387Z,4.85
